Time;durP1;ratioP1;P1;durP2;ratioP2;P2;SDS_P1;SDS_P2;PMS_P1;PMS_P2;Temp;Humidity;BMP_temperature;BMP_pressure;BME280_temperature;BME280_humidity;BME280_pressure;Samples;Min_cycle;Max_cycle;Signal;HPM_P1;HPM_P2
2024/02/29 00:02:10;;;;;;;6.18;4.13;;;4.90;99.90;;;;;;5003034;28;20179;-72
2024/02/29 00:04:36;;;;;;;8.82;4.95;;;4.80;99.90;;;;;;4993480;28;20113;-72
2024/02/29 00:07:02;;;;;;;13.75;5.65;;;4.90;99.90;;;;;;5012665;28;20097;-72
2024/02/29 00:09:29;;;;;;;9.68;4.90;;;4.80;99.90;;;;;;5001505;28;20172;-73
2024/02/29 00:11:55;;;;;;;8.25;5.03;;;4.80;99.90;;;;;;5009457;28;20018;-72
2024/02/29 00:14:21;;;;;;;15.90;3.85;;;4.70;99.90;;;;;;4988580;28;20493;-72
2024/02/29 00:16:47;;;;;;;7.25;4.05;;;4.70;99.90;;;;;;5009749;28;20030;-72
2024/02/29 00:19:13;;;;;;;9.05;4.93;;;4.70;99.90;;;;;;4995670;28;20461;-73
2024/02/29 00:21:39;;;;;;;8.90;4.57;;;4.70;99.90;;;;;;4999589;28;20034;-72
2024/02/29 00:24:05;;;;;;;10.93;4.53;;;4.70;99.90;;;;;;5002053;28;20034;-73
2024/02/29 00:26:31;;;;;;;9.30;3.85;;;4.70;99.90;;;;;;4993067;28;20038;-72
2024/02/29 00:28:56;;;;;;;21.02;5.38;;;4.70;99.90;;;;;;5002195;28;20030;-72
2024/02/29 00:31:24;;;;;;;11.30;3.70;;;4.70;99.90;;;;;;4987317;28;20026;-73
2024/02/29 00:33:51;;;;;;;10.48;4.90;;;4.60;99.90;;;;;;5002980;28;20022;-71
2024/02/29 00:36:16;;;;;;;16.15;6.20;;;4.60;99.90;;;;;;4996243;28;20026;-71
2024/02/29 00:38:42;;;;;;;6.72;3.05;;;4.60;99.90;;;;;;5014079;28;20541;-73
2024/02/29 00:41:08;;;;;;;6.47;4.45;;;4.60;99.90;;;;;;5008783;28;20035;-72
2024/02/29 00:43:34;;;;;;;11.68;4.97;;;4.60;99.90;;;;;;5007996;28;20393;-71
2024/02/29 00:46:00;;;;;;;9.18;4.45;;;4.60;99.90;;;;;;5008754;28;20031;-71
2024/02/29 00:48:26;;;;;;;14.30;3.90;;;4.50;99.90;;;;;;4987371;28;20058;-72
2024/02/29 00:50:52;;;;;;;5.43;3.60;;;4.30;99.90;;;;;;5008585;28;20029;-72
2024/02/29 00:53:18;;;;;;;3.22;2.42;;;4.20;99.90;;;;;;5001771;28;20464;-72
2024/02/29 00:55:44;;;;;;;11.65;6.10;;;4.10;99.90;;;;;;5000993;28;20052;-72
2024/02/29 00:58:10;;;;;;;7.47;4.28;;;4.10;99.90;;;;;;4987648;28;20031;-72
2024/02/29 01:00:36;;;;;;;8.27;5.22;;;4.10;99.90;;;;;;4989866;28;20039;-73
2024/02/29 01:03:02;;;;;;;11.15;4.57;;;4.10;99.90;;;;;;5001809;28;20030;-73
2024/02/29 01:05:28;;;;;;;11.93;4.70;;;4.00;99.90;;;;;;5005000;28;20034;-72
2024/02/29 01:07:54;;;;;;;5.60;3.15;;;4.00;99.90;;;;;;5008292;28;20018;-72
2024/02/29 01:10:20;;;;;;;14.32;5.47;;;4.00;99.90;;;;;;4989476;28;20546;-72
2024/02/29 01:12:46;;;;;;;8.73;4.85;;;4.00;99.90;;;;;;4993069;28;20044;-72
2024/02/29 01:15:19;;;;;;;8.98;4.43;;;4.10;99.90;;;;;;5012849;28;20126;-73
2024/02/29 01:17:46;;;;;;;5.25;3.85;;;4.10;99.90;;;;;;5025026;23;20078;-73
2024/02/29 01:20:12;;;;;;;9.80;4.55;;;4.00;99.90;;;;;;4988948;28;20357;-72
2024/02/29 01:22:38;;;;;;;9.65;3.72;;;4.00;99.90;;;;;;4969894;28;20046;-73
2024/02/29 01:25:04;;;;;;;8.18;4.40;;;4.00;99.90;;;;;;4971817;28;20035;-73
2024/02/29 01:27:30;;;;;;;9.68;4.35;;;4.00;99.90;;;;;;4984720;28;20143;-73
2024/02/29 01:29:56;;;;;;;9.07;4.60;;;4.00;99.90;;;;;;4979245;28;20113;-73
2024/02/29 01:32:22;;;;;;;7.93;5.32;;;4.00;99.90;;;;;;4970944;28;20081;-73
2024/02/29 01:34:48;;;;;;;7.68;5.15;;;3.90;99.90;;;;;;4977117;28;20084;-73
2024/02/29 01:37:14;;;;;;;7.55;4.15;;;3.90;99.90;;;;;;4987960;28;20035;-73
2024/02/29 01:39:41;;;;;;;11.90;5.28;;;3.90;99.90;;;;;;4981409;28;20031;-73
2024/02/29 01:42:07;;;;;;;15.32;5.63;;;3.90;99.90;;;;;;4987464;28;20130;-73
2024/02/29 01:44:38;;;;;;;6.78;4.50;;;3.90;99.90;;;;;;4962240;28;20050;-73
2024/02/29 01:47:06;;;;;;;16.27;5.47;;;3.90;99.90;;;;;;4992283;28;20027;-73
2024/02/29 01:49:34;;;;;;;6.88;5.18;;;3.90;99.90;;;;;;4973213;28;20031;-73
2024/02/29 01:52:00;;;;;;;8.18;3.15;;;3.90;99.90;;;;;;4971105;28;20058;-73
2024/02/29 01:54:26;;;;;;;8.25;4.75;;;3.90;99.90;;;;;;4987711;28;20050;-73
2024/02/29 01:56:52;;;;;;;12.75;5.63;;;3.90;99.90;;;;;;4987305;28;20018;-73
2024/02/29 01:59:18;;;;;;;9.07;5.32;;;3.90;99.90;;;;;;4987928;28;20034;-73
2024/02/29 02:01:43;;;;;;;6.72;4.07;;;3.90;99.90;;;;;;4970348;28;20042;-73
2024/02/29 02:04:09;;;;;;;10.23;5.28;;;3.90;99.90;;;;;;4994650;28;20077;-73
2024/02/29 02:06:36;;;;;;;4.75;3.08;;;3.90;99.90;;;;;;4967521;28;20030;-73
2024/02/29 02:09:02;;;;;;;8.18;4.10;;;3.90;99.90;;;;;;4989379;28;20118;-73
2024/02/29 02:11:27;;;;;;;10.68;3.95;;;3.90;99.90;;;;;;4987369;28;20031;-73
2024/02/29 02:13:53;;;;;;;14.05;5.03;;;3.90;99.90;;;;;;4987196;28;20376;-73
2024/02/29 02:16:19;;;;;;;8.40;3.45;;;3.80;99.90;;;;;;4968949;28;20035;-73
2024/02/29 02:18:45;;;;;;;11.13;5.70;;;3.70;99.90;;;;;;4988029;28;20073;-74
2024/02/29 02:21:10;;;;;;;8.07;4.97;;;3.60;99.90;;;;;;4986290;28;20119;-73
2024/02/29 02:23:36;;;;;;;6.28;3.97;;;3.40;99.90;;;;;;4972658;28;20106;-73
2024/02/29 02:26:02;;;;;;;11.10;5.18;;;3.30;99.90;;;;;;4972108;28;20027;-73
2024/02/29 02:28:29;;;;;;;9.48;4.68;;;3.40;99.90;;;;;;4972676;28;20034;-73
2024/02/29 02:30:55;;;;;;;8.15;3.92;;;3.40;99.90;;;;;;4969710;28;20078;-73
2024/02/29 02:33:20;;;;;;;9.93;5.05;;;3.40;99.90;;;;;;4972621;28;20538;-72
2024/02/29 02:35:47;;;;;;;8.52;4.25;;;3.40;99.90;;;;;;4971536;28;20174;-73
2024/02/29 02:38:13;;;;;;;10.05;4.72;;;3.40;99.90;;;;;;4967974;28;20038;-73
2024/02/29 02:40:39;;;;;;;6.50;4.00;;;3.40;99.90;;;;;;4967313;28;20043;-73
2024/02/29 02:43:05;;;;;;;7.47;4.95;;;3.30;99.90;;;;;;4963099;28;20041;-73
2024/02/29 02:45:31;;;;;;;8.90;4.75;;;3.30;99.90;;;;;;4981261;28;20050;-73
2024/02/29 02:47:57;;;;;;;10.57;4.43;;;3.20;99.90;;;;;;4972552;28;20062;-72
2024/02/29 02:50:24;;;;;;;5.50;3.70;;;3.10;99.90;;;;;;4983852;28;20024;-73
2024/02/29 02:52:52;;;;;;;11.52;5.38;;;3.10;99.90;;;;;;4969038;28;20023;-72
2024/02/29 02:55:18;;;;;;;8.98;4.90;;;3.00;99.90;;;;;;4965981;28;20060;-72
2024/02/29 02:57:44;;;;;;;12.90;5.13;;;3.00;99.90;;;;;;4972946;28;20480;-72
2024/02/29 03:00:11;;;;;;;4.78;3.70;;;2.90;99.90;;;;;;4966450;28;20710;-73
2024/02/29 03:02:40;;;;;;;8.75;4.68;;;2.80;99.90;;;;;;4971103;28;20039;-73
2024/02/29 03:05:07;;;;;;;6.32;3.75;;;2.80;99.90;;;;;;4965645;28;20042;-73
2024/02/29 03:07:33;;;;;;;8.90;4.18;;;2.80;99.90;;;;;;4987109;28;20022;-73
2024/02/29 03:09:59;;;;;;;8.55;4.63;;;2.80;99.90;;;;;;4971972;28;20045;-73
2024/02/29 03:12:24;;;;;;;12.20;4.25;;;2.80;99.90;;;;;;4972646;28;20031;-73
2024/02/29 03:14:50;;;;;;;8.85;5.18;;;2.80;99.90;;;;;;4980690;28;20038;-73
2024/02/29 03:17:16;;;;;;;13.13;4.13;;;2.80;99.90;;;;;;4986887;28;20037;-73
2024/02/29 03:19:42;;;;;;;16.08;3.83;;;2.80;99.90;;;;;;4971959;28;20034;-73
2024/02/29 03:22:08;;;;;;;8.93;5.68;;;2.80;99.90;;;;;;4971077;28;20049;-73
2024/02/29 03:24:45;;;;;;;14.15;6.00;;;2.80;99.90;;;;;;4986696;28;20031;-73
2024/02/29 03:27:11;;;;;;;9.20;6.18;;;2.80;99.90;;;;;;4972054;28;20023;-73
2024/02/29 03:29:38;;;;;;;5.85;4.65;;;2.80;99.90;;;;;;4981093;28;20042;-74
2024/02/29 03:32:04;;;;;;;11.40;4.63;;;2.70;99.90;;;;;;4987030;28;20054;-73
2024/02/29 03:34:29;;;;;;;14.85;5.57;;;2.70;99.90;;;;;;4981811;28;20428;-73
2024/02/29 03:36:55;;;;;;;6.50;4.22;;;2.70;99.90;;;;;;4990652;28;20051;-74
2024/02/29 03:39:21;;;;;;;6.18;4.75;;;2.60;99.90;;;;;;4969539;28;20048;-74
2024/02/29 03:41:46;;;;;;;10.88;5.70;;;2.60;99.90;;;;;;4975659;28;20032;-74
2024/02/29 03:44:12;;;;;;;9.18;5.65;;;2.60;99.90;;;;;;4968635;28;20038;-74
2024/02/29 03:46:38;;;;;;;7.40;4.10;;;2.70;99.90;;;;;;4975606;28;20034;-74
2024/02/29 03:49:04;;;;;;;10.63;6.75;;;2.70;99.90;;;;;;4974978;28;20062;-74
2024/02/29 03:51:30;;;;;;;15.45;7.85;;;2.70;99.90;;;;;;4990702;28;20034;-74
2024/02/29 03:53:56;;;;;;;9.60;5.38;;;2.80;99.90;;;;;;4989744;28;20502;-74
2024/02/29 03:56:23;;;;;;;6.72;4.25;;;2.80;99.90;;;;;;4974490;28;20033;-74
2024/02/29 03:58:49;;;;;;;8.35;4.60;;;2.80;99.90;;;;;;4984020;28;20131;-74
2024/02/29 04:01:15;;;;;;;20.50;5.90;;;2.80;99.90;;;;;;4975044;28;20027;-74
2024/02/29 04:03:41;;;;;;;7.25;4.18;;;2.80;99.90;;;;;;4970099;28;20479;-73
2024/02/29 04:06:07;;;;;;;10.70;4.72;;;2.80;99.90;;;;;;4988521;28;20031;-73
2024/02/29 04:08:35;;;;;;;11.57;6.30;;;2.70;99.90;;;;;;4985817;28;20031;-73
2024/02/29 04:11:02;;;;;;;14.38;7.15;;;2.70;99.90;;;;;;4973154;28;20472;-73
2024/02/29 04:13:29;;;;;;;9.88;4.97;;;2.70;99.90;;;;;;4986714;28;20377;-73
2024/02/29 04:15:54;;;;;;;11.90;4.45;;;2.70;99.90;;;;;;4972000;28;20045;-73
2024/02/29 04:18:20;;;;;;;9.00;3.13;;;2.60;99.90;;;;;;4989635;28;20471;-74
2024/02/29 04:20:46;;;;;;;10.88;3.88;;;2.50;99.90;;;;;;4990040;28;20030;-72
2024/02/29 04:23:12;;;;;;;6.88;4.47;;;2.40;99.90;;;;;;4981520;28;20030;-73
2024/02/29 04:25:38;;;;;;;9.20;4.32;;;2.50;99.90;;;;;;4984477;28;20074;-74
2024/02/29 04:28:04;;;;;;;15.88;7.05;;;2.50;99.90;;;;;;4989630;28;20117;-73
2024/02/29 04:30:30;;;;;;;7.15;3.47;;;2.50;99.90;;;;;;4951226;28;20043;-74
2024/02/29 04:32:56;;;;;;;14.25;5.50;;;2.50;99.90;;;;;;4989697;28;20023;-74
2024/02/29 04:35:22;;;;;;;9.90;5.57;;;2.50;99.90;;;;;;4967091;28;20442;-74
2024/02/29 04:37:48;;;;;;;10.55;5.00;;;2.50;99.90;;;;;;4990038;28;20050;-75
2024/02/29 04:40:13;;;;;;;12.75;6.95;;;2.50;99.90;;;;;;4974677;28;20035;-74
2024/02/29 04:42:40;;;;;;;9.23;4.80;;;2.60;99.90;;;;;;4975089;28;20535;-74
2024/02/29 04:45:07;;;;;;;22.92;6.30;;;2.60;99.90;;;;;;4982269;28;20042;-74
2024/02/29 04:47:36;;;;;;;17.58;7.25;;;2.50;99.90;;;;;;4973712;28;20025;-73
2024/02/29 04:50:05;;;;;;;9.43;4.32;;;2.50;99.90;;;;;;4980742;28;20023;-74
2024/02/29 04:52:31;;;;;;;13.70;4.50;;;2.50;99.90;;;;;;4989022;28;20022;-74
2024/02/29 04:54:57;;;;;;;13.35;6.70;;;2.30;99.90;;;;;;4982411;28;20101;-74
2024/02/29 04:57:23;;;;;;;15.10;7.50;;;2.20;99.90;;;;;;4995051;28;20035;-74
2024/02/29 04:59:48;;;;;;;8.23;6.00;;;2.30;99.90;;;;;;4994427;28;20542;-74
2024/02/29 05:02:14;;;;;;;13.63;5.45;;;2.20;99.90;;;;;;4978149;28;20034;-74
2024/02/29 05:04:40;;;;;;;11.68;6.95;;;2.20;99.90;;;;;;4987072;28;20042;-72
2024/02/29 05:07:06;;;;;;;4.78;4.35;;;2.10;99.90;;;;;;4994648;28;20031;-73
2024/02/29 05:09:32;;;;;;;7.50;5.40;;;2.20;99.90;;;;;;4978830;28;20408;-73
2024/02/29 05:11:58;;;;;;;12.25;7.07;;;2.30;99.90;;;;;;4981043;28;20058;-74
2024/02/29 05:14:23;;;;;;;14.07;6.20;;;2.30;99.90;;;;;;4989551;28;20031;-73
2024/02/29 05:16:49;;;;;;;11.98;6.32;;;2.40;99.90;;;;;;4972905;28;20038;-74
2024/02/29 05:19:15;;;;;;;10.35;5.93;;;2.30;99.90;;;;;;4972934;28;20031;-73
2024/02/29 05:21:43;;;;;;;22.15;7.57;;;2.30;99.90;;;;;;4966243;28;20042;-74
2024/02/29 05:24:09;;;;;;;18.52;6.68;;;2.40;99.90;;;;;;4973131;28;20049;-73
2024/02/29 05:26:35;;;;;;;15.48;7.10;;;2.40;99.90;;;;;;4968585;28;20396;-73
2024/02/29 05:29:00;;;;;;;17.45;9.85;;;2.50;99.90;;;;;;4973280;28;20086;-73
2024/02/29 05:31:26;;;;;;;20.75;12.98;;;2.50;99.90;;;;;;4982165;28;20022;-74
2024/02/29 05:33:52;;;;;;;18.10;9.38;;;2.60;99.90;;;;;;4989077;28;20031;-73
2024/02/29 05:36:18;;;;;;;17.52;7.78;;;2.70;99.90;;;;;;4969762;28;20048;-73
2024/02/29 05:38:49;;;;;;;12.50;5.95;;;2.60;99.90;;;;;;4989040;28;20066;-75
2024/02/29 05:41:17;;;;;;;11.73;7.30;;;2.60;99.90;;;;;;4987772;28;20432;-73
2024/02/29 05:43:44;;;;;;;9.13;5.97;;;2.40;99.90;;;;;;4972702;28;20062;-73
2024/02/29 05:46:10;;;;;;;7.45;6.25;;;2.40;99.90;;;;;;4987436;28;20424;-73
2024/02/29 05:48:37;;;;;;;10.55;6.75;;;2.30;99.90;;;;;;4971407;28;20026;-73
2024/02/29 05:51:03;;;;;;;22.92;7.45;;;2.30;99.90;;;;;;4973041;28;20031;-71
2024/02/29 05:53:29;;;;;;;15.60;7.97;;;2.20;99.90;;;;;;4987346;28;20030;-72
2024/02/29 05:55:55;;;;;;;12.20;5.88;;;2.10;99.90;;;;;;4972006;28;20554;-74
2024/02/29 05:58:21;;;;;;;15.07;6.03;;;2.10;99.90;;;;;;4961268;28;20038;-73
2024/02/29 06:00:47;;;;;;;14.63;8.25;;;2.10;99.90;;;;;;4975778;28;20042;-73
2024/02/29 06:03:12;;;;;;;8.95;5.78;;;2.10;99.90;;;;;;4958919;28;20031;-73
2024/02/29 06:05:38;;;;;;;8.75;3.53;;;2.10;99.90;;;;;;4956783;28;20049;-73
2024/02/29 06:08:04;;;;;;;12.93;6.25;;;2.10;99.90;;;;;;4957187;28;20039;-73
2024/02/29 06:10:30;;;;;;;9.32;6.07;;;2.00;99.90;;;;;;4989342;28;20089;-73
2024/02/29 06:12:56;;;;;;;9.05;5.22;;;2.00;99.90;;;;;;4974935;28;20039;-73
2024/02/29 06:15:22;;;;;;;18.50;4.80;;;2.00;99.90;;;;;;4987464;28;20121;-72
2024/02/29 06:17:49;;;;;;;16.58;5.97;;;2.00;99.90;;;;;;4987372;28;20340;-74
2024/02/29 06:20:15;;;;;;;19.40;6.00;;;2.00;99.90;;;;;;4988134;28;20610;-73
2024/02/29 06:22:42;;;;;;;7.97;6.88;;;2.00;99.90;;;;;;4971400;28;20023;-73
2024/02/29 06:25:09;;;;;;;11.73;6.07;;;2.00;99.90;;;;;;4949764;28;20043;-74
2024/02/29 06:27:36;;;;;;;14.27;7.28;;;2.00;99.90;;;;;;4980015;28;20451;-72
2024/02/29 06:30:04;;;;;;;13.68;5.93;;;1.90;99.90;;;;;;4973054;28;20031;-73
2024/02/29 06:32:29;;;;;;;13.18;6.07;;;1.90;99.90;;;;;;4958442;28;20023;-74
2024/02/29 06:34:55;;;;;;;22.92;9.27;;;1.90;99.90;;;;;;4992221;28;20034;-73
2024/02/29 06:37:21;;;;;;;12.13;7.20;;;1.90;99.90;;;;;;4972073;28;20031;-73
2024/02/29 06:39:47;;;;;;;18.60;7.75;;;1.90;99.90;;;;;;4969462;28;20046;-73
2024/02/29 06:42:13;;;;;;;6.90;4.75;;;1.90;99.90;;;;;;4970730;28;20038;-73
2024/02/29 06:44:38;;;;;;;11.23;5.78;;;1.90;99.90;;;;;;4971232;28;20073;-74
2024/02/29 06:47:04;;;;;;;14.77;7.57;;;1.90;99.90;;;;;;4976272;28;20039;-75
2024/02/29 06:49:30;;;;;;;10.25;6.03;;;2.00;99.90;;;;;;4968619;28;20481;-73
2024/02/29 06:51:56;;;;;;;7.65;6.20;;;2.00;99.90;;;;;;4978038;28;20113;-74
2024/02/29 06:54:22;;;;;;;10.95;4.78;;;2.00;99.90;;;;;;4977098;28;20030;-73
2024/02/29 06:56:48;;;;;;;11.50;6.57;;;2.10;99.90;;;;;;4970061;28;20031;-73
2024/02/29 06:59:13;;;;;;;10.95;7.20;;;2.10;99.90;;;;;;4988029;28;20046;-73
2024/02/29 07:01:39;;;;;;;14.32;5.60;;;2.20;99.90;;;;;;4987364;28;20038;-73
2024/02/29 07:04:07;;;;;;;11.18;6.57;;;2.20;99.90;;;;;;4986081;28;20030;-73
2024/02/29 07:06:33;;;;;;;12.43;6.53;;;2.30;99.90;;;;;;4971918;28;20057;-73
2024/02/29 07:08:59;;;;;;;10.02;5.60;;;2.30;99.90;;;;;;4964734;28;20030;-74
2024/02/29 07:11:25;;;;;;;11.05;4.63;;;2.30;99.90;;;;;;4999200;28;20034;-73
2024/02/29 07:13:51;;;;;;;10.32;7.18;;;2.40;99.90;;;;;;4975282;28;20027;-73
2024/02/29 07:16:20;;;;;;;12.13;6.18;;;2.50;99.90;;;;;;4975314;28;20022;-73
2024/02/29 07:18:46;;;;;;;20.02;7.97;;;2.60;99.90;;;;;;4984822;23;20047;-68
2024/02/29 07:21:12;;;;;;;8.32;5.18;;;2.70;99.90;;;;;;4976431;28;20081;-68
2024/02/29 07:23:37;;;;;;;18.38;7.50;;;2.70;99.90;;;;;;5007086;28;20039;-68
2024/02/29 07:26:04;;;;;;;12.20;4.47;;;2.80;99.90;;;;;;4994630;28;20041;-68
2024/02/29 07:28:30;;;;;;;16.73;6.65;;;3.00;99.90;;;;;;4994815;28;20372;-68
2024/02/29 07:30:59;;;;;;;10.30;5.05;;;3.30;99.90;;;;;;5010498;28;20030;-69
2024/02/29 07:33:25;;;;;;;23.02;8.82;;;3.20;99.90;;;;;;4994463;28;20549;-69
2024/02/29 07:35:51;;;;;;;17.50;7.70;;;3.20;99.90;;;;;;5009195;28;20034;-68
2024/02/29 07:38:16;;;;;;;19.95;7.07;;;3.30;99.90;;;;;;5010438;28;20034;-69
2024/02/29 07:40:42;;;;;;;17.00;8.25;;;3.40;99.90;;;;;;5010865;28;20034;-68
2024/02/29 07:43:09;;;;;;;10.95;6.30;;;3.60;99.90;;;;;;5010761;28;20034;-69
2024/02/29 07:45:36;;;;;;;23.20;6.97;;;4.00;99.90;;;;;;5006852;28;20030;-64
2024/02/29 07:48:02;;;;;;;19.85;7.72;;;4.30;99.90;;;;;;5009952;28;20026;-59
2024/02/29 07:50:28;;;;;;;14.68;6.40;;;4.10;99.90;;;;;;4994454;28;20356;-60
2024/02/29 07:52:54;;;;;;;9.43;7.13;;;4.10;99.90;;;;;;4994538;28;20097;-58
2024/02/29 07:55:20;;;;;;;14.27;6.47;;;4.10;99.90;;;;;;4994204;28;20543;-60
2024/02/29 07:57:46;;;;;;;10.63;7.38;;;3.90;99.90;;;;;;4996082;28;20058;-59
2024/02/29 08:00:12;;;;;;;26.58;9.98;;;3.80;99.90;;;;;;4993610;28;20065;-59
2024/02/29 08:02:46;;;;;;;19.33;7.68;;;3.90;99.90;;;;;;4994247;28;20026;-67
2024/02/29 08:05:12;;;;;;;15.18;7.03;;;3.90;99.90;;;;;;4993547;28;20031;-67
2024/02/29 08:07:38;;;;;;;21.98;7.82;;;3.90;99.90;;;;;;4988988;28;20057;-66
2024/02/29 08:10:05;;;;;;;12.55;8.15;;;4.20;99.90;;;;;;5000135;28;20064;-67
2024/02/29 08:12:31;;;;;;;14.10;8.52;;;4.20;99.90;;;;;;4993156;28;20064;-67
2024/02/29 08:14:57;;;;;;;10.52;6.47;;;4.30;99.90;;;;;;4993471;28;20057;-67
2024/02/29 08:17:26;;;;;;;22.90;6.95;;;4.30;99.90;;;;;;4994085;28;20034;-67
2024/02/29 08:19:53;;;;;;;21.45;8.98;;;4.40;99.90;;;;;;4991921;28;20042;-67
2024/02/29 08:22:19;;;;;;;16.00;6.22;;;4.50;99.90;;;;;;4991793;28;20030;-67
2024/02/29 08:24:45;;;;;;;17.60;8.65;;;4.60;99.90;;;;;;4993317;28;20105;-67
2024/02/29 08:27:10;;;;;;;29.25;10.00;;;4.70;99.90;;;;;;4992585;28;20062;-67
2024/02/29 08:29:36;;;;;;;17.70;11.30;;;4.80;99.90;;;;;;4993475;28;20097;-67
2024/02/29 08:32:02;;;;;;;19.58;8.65;;;4.90;99.90;;;;;;5007300;28;20034;-67
2024/02/29 08:34:28;;;;;;;17.33;8.73;;;4.90;99.90;;;;;;4991743;28;20483;-67
2024/02/29 08:36:54;;;;;;;17.52;9.98;;;4.90;99.90;;;;;;4994417;28;20018;-66
2024/02/29 08:39:20;;;;;;;23.67;8.57;;;5.00;99.90;;;;;;5008389;28;20033;-66
2024/02/29 08:41:47;;;;;;;11.80;8.30;;;5.20;99.90;;;;;;4992798;28;20567;-66
2024/02/29 08:44:15;;;;;;;22.17;9.18;;;5.30;99.90;;;;;;4992816;28;20038;-67
2024/02/29 08:46:42;;;;;;;27.65;10.98;;;5.50;99.90;;;;;;5004471;28;20030;-67
2024/02/29 08:49:08;;;;;;;24.00;10.43;;;5.40;99.90;;;;;;4992610;28;20034;-66
2024/02/29 08:51:34;;;;;;;22.65;9.85;;;5.60;99.90;;;;;;4992450;28;20022;-66
2024/02/29 08:54:00;;;;;;;16.60;8.23;;;5.70;99.90;;;;;;5008007;28;20030;-66
2024/02/29 08:56:25;;;;;;;30.70;11.40;;;5.90;99.90;;;;;;4990907;28;20120;-67
2024/02/29 08:58:51;;;;;;;26.48;10.85;;;5.80;99.90;;;;;;4993102;28;20026;-67
2024/02/29 09:01:20;;;;;;;20.48;8.65;;;5.80;99.90;;;;;;4992602;28;20045;-66
2024/02/29 09:03:46;;;;;;;16.08;8.05;;;6.00;99.90;;;;;;4992238;28;20029;-68
2024/02/29 09:06:13;;;;;;;18.08;8.18;;;6.10;99.90;;;;;;4992219;28;20035;-67
2024/02/29 09:08:39;;;;;;;20.45;9.02;;;6.10;99.90;;;;;;5007278;28;20026;-67
2024/02/29 09:11:05;;;;;;;18.15;8.25;;;6.20;99.90;;;;;;5006109;28;20026;-68
2024/02/29 09:13:31;;;;;;;14.95;9.02;;;6.40;99.90;;;;;;4990960;28;20412;-67
2024/02/29 09:15:57;;;;;;;15.88;7.57;;;6.50;99.90;;;;;;5006833;28;20495;-67
2024/02/29 09:18:23;;;;;;;22.38;9.45;;;6.70;99.90;;;;;;5007071;28;20113;-67
2024/02/29 09:20:49;;;;;;;19.77;7.93;;;6.80;99.90;;;;;;4994487;28;20042;-67
2024/02/29 09:23:15;;;;;;;20.48;8.77;;;6.70;99.90;;;;;;4992312;28;20030;-67
2024/02/29 09:25:41;;;;;;;21.27;9.25;;;6.90;99.90;;;;;;4991731;28;20037;-67
2024/02/29 09:28:08;;;;;;;17.50;8.48;;;6.80;99.90;;;;;;4992141;28;20073;-67
2024/02/29 09:30:34;;;;;;;25.55;9.75;;;6.70;99.90;;;;;;4992330;28;20100;-67
2024/02/29 09:33:00;;;;;;;18.33;9.13;;;6.70;99.90;;;;;;4991066;28;20034;-68
2024/02/29 09:35:25;;;;;;;18.67;9.63;;;6.90;99.90;;;;;;4991842;28;20034;-67
2024/02/29 09:37:51;;;;;;;18.80;8.20;;;7.00;99.90;;;;;;4991839;28;20031;-67
2024/02/29 09:40:20;;;;;;;23.15;9.68;;;7.30;99.90;;;;;;5006321;28;20038;-68
2024/02/29 09:42:47;;;;;;;26.73;9.15;;;7.30;99.90;;;;;;5007248;28;20036;-67
2024/02/29 09:45:15;;;;;;;19.00;8.93;;;7.60;99.90;;;;;;4990596;28;20030;-68
2024/02/29 09:47:41;;;;;;;18.88;8.40;;;7.60;99.90;;;;;;5006952;28;20534;-68
2024/02/29 09:50:11;;;;;;;14.23;8.00;;;7.60;99.90;;;;;;5005477;28;20039;-67
2024/02/29 09:52:41;;;;;;;26.83;9.13;;;7.80;99.90;;;;;;4989102;28;20023;-67
2024/02/29 09:55:13;;;;;;;19.13;7.18;;;7.90;99.90;;;;;;5004992;28;20031;-67
2024/02/29 09:57:41;;;;;;;15.00;8.15;;;7.90;99.90;;;;;;5003980;28;20033;-67
2024/02/29 10:00:11;;;;;;;28.63;8.40;;;8.00;99.90;;;;;;4991864;28;20057;-67
2024/02/29 10:02:44;;;;;;;17.60;9.13;;;8.20;99.90;;;;;;4991575;28;20030;-67
2024/02/29 10:05:10;;;;;;;27.65;7.63;;;8.30;99.90;;;;;;4991335;28;20316;-67
2024/02/29 10:07:46;;;;;;;20.77;9.85;;;8.50;99.90;;;;;;5008850;28;20018;-67
2024/02/29 10:10:16;;;;;;;23.17;8.50;;;8.50;99.90;;;;;;5009085;28;20136;-67
2024/02/29 10:12:43;;;;;;;17.70;7.63;;;8.60;99.90;;;;;;4992070;28;20058;-68
2024/02/29 10:15:10;;;;;;;20.02;7.10;;;8.80;99.90;;;;;;4990795;28;20053;-68
2024/02/29 10:17:38;;;;;;;22.05;6.32;;;9.00;99.90;;;;;;5006880;28;20034;-68
2024/02/29 10:20:14;;;;;;;33.22;8.00;;;8.80;99.90;;;;;;4991186;28;20034;-67
2024/02/29 10:22:43;;;;;;;14.60;7.75;;;8.80;99.90;;;;;;4991229;28;20084;-66
2024/02/29 10:25:14;;;;;;;26.20;8.40;;;9.00;99.90;;;;;;4989871;28;20126;-66
2024/02/29 10:27:40;;;;;;;;;;;9.10;99.90;;;;;;5006579;28;20026;-66
2024/02/29 10:30:14;;;;;;;18.83;7.65;;;9.50;99.90;;;;;;5004769;28;19933;-66
2024/02/29 10:32:46;;;;;;;21.40;8.50;;;9.70;99.90;;;;;;4991393;28;20054;-66
2024/02/29 10:35:23;;;;;;;18.55;6.88;;;9.70;99.90;;;;;;4990491;28;20423;-66
2024/02/29 10:37:54;;;;;;;19.50;8.65;;;9.50;99.90;;;;;;5006964;28;20027;-66
2024/02/29 10:40:20;;;;;;;;;;;9.60;99.90;;;;;;4991133;28;20168;-66
2024/02/29 10:42:51;;;;;;;14.88;6.10;;;9.50;99.90;;;;;;4992203;28;19918;-66
2024/02/29 10:45:17;;;;;;;11.40;5.83;;;9.60;99.90;;;;;;4994440;28;20053;-66
2024/02/29 10:48:07;;;;;;;18.05;6.70;;;9.80;99.90;;;;;;4994910;28;20038;-66
2024/02/29 10:50:53;;;;;;;27.23;8.63;;;9.90;99.90;;;;;;4994005;28;20030;-66
2024/02/29 10:53:55;;;;;;;22.92;8.48;;;10.30;99.90;;;;;;5009158;28;20034;-67
2024/02/29 10:56:23;;;;;;;16.17;6.38;;;10.90;99.90;;;;;;4990348;28;20133;-66
2024/02/29 10:59:10;;;;;;;16.85;6.72;;;10.80;99.90;;;;;;4995625;28;20032;-66
2024/02/29 11:01:38;;;;;;;29.73;7.75;;;11.00;99.90;;;;;;4989723;28;20113;-68
2024/02/29 11:04:05;;;;;;;19.55;7.18;;;11.30;99.90;;;;;;5006674;28;20027;-67
2024/02/29 11:06:48;;;;;;;19.63;7.20;;;11.00;99.90;;;;;;4994764;28;20034;-67
2024/02/29 11:09:24;;;;;;;19.10;7.70;;;10.70;99.90;;;;;;5009300;28;20074;-66
2024/02/29 11:12:17;;;;;;;16.27;6.38;;;11.30;99.90;;;;;;5008338;28;20069;-66
2024/02/29 11:14:45;;;;;;;15.60;6.93;;;11.20;99.90;;;;;;5009286;28;20121;-67
2024/02/29 11:17:14;;;;;;;17.83;7.18;;;12.50;99.90;;;;;;5009028;28;20057;-66
2024/02/29 11:19:39;;;;;;;15.00;7.15;;;11.80;99.90;;;;;;4976850;28;20026;-66
2024/02/29 11:22:12;;;;;;;23.50;9.07;;;12.20;99.90;;;;;;5007835;28;20042;-66
2024/02/29 11:24:42;;;;;;;14.40;6.80;;;13.00;99.90;;;;;;5005023;28;20102;-66
2024/02/29 11:27:14;;;;;;;18.35;7.32;;;15.00;98.40;;;;;;4993496;28;20506;-66
2024/02/29 11:29:46;;;;;;;16.20;6.82;;;15.80;94.80;;;;;;5005778;28;20441;-67
2024/02/29 11:32:13;;;;;;;20.05;6.35;;;16.40;92.40;;;;;;5014478;28;20034;-67
2024/02/29 11:34:38;;;;;;;21.98;6.88;;;15.90;89.30;;;;;;4993476;28;20033;-66
2024/02/29 11:37:07;;;;;;;19.58;7.38;;;16.80;90.40;;;;;;4993068;28;20038;-67
2024/02/29 11:39:32;;;;;;;16.58;6.88;;;13.70;92.80;;;;;;4992541;28;20026;-67
2024/02/29 11:42:04;;;;;;;17.15;7.65;;;14.70;94.70;;;;;;4993057;28;20076;-66
2024/02/29 11:44:36;;;;;;;;;;;14.10;94.40;;;;;;4992664;28;20037;-66
2024/02/29 11:47:02;;;;;;;17.48;5.85;;;15.60;94.30;;;;;;5007635;28;20355;-67
2024/02/29 11:49:28;;;;;;;19.42;7.60;;;17.30;89.20;;;;;;4992108;28;20113;-66
2024/02/29 11:51:55;;;;;;;18.48;5.82;;;15.90;86.60;;;;;;4993060;28;20144;-66
2024/02/29 11:54:21;;;;;;;17.90;6.90;;;18.60;83.50;;;;;;4990633;28;20026;-66
2024/02/29 11:56:47;;;;;;;14.35;5.90;;;18.50;80.20;;;;;;4992209;28;20040;-66
2024/02/29 11:59:15;;;;;;;15.30;6.68;;;17.00;80.20;;;;;;4992998;28;20034;-66
2024/02/29 12:01:43;;;;;;;13.43;6.32;;;14.70;87.20;;;;;;5006802;28;20105;-66
2024/02/29 12:04:10;;;;;;;12.75;5.82;;;16.40;88.90;;;;;;5005763;28;20037;-66
2024/02/29 12:06:43;;;;;;;10.50;4.55;;;16.70;87.20;;;;;;4992330;28;20124;-66
2024/02/29 12:09:14;;;;;;;13.65;5.82;;;18.00;81.50;;;;;;4992883;28;20113;-67
2024/02/29 12:11:45;;;;;;;13.90;5.07;;;15.90;80.80;;;;;;5007401;28;20485;-67
2024/02/29 12:14:12;;;;;;;12.02;4.90;;;18.90;78.10;;;;;;4992562;28;20428;-67
2024/02/29 12:16:43;;;;;;;22.23;6.90;;;20.30;70.10;;;;;;5005819;28;20494;-67
2024/02/29 12:19:09;;;;;;;;;;;17.90;73.60;;;;;;5007856;28;20038;-67
2024/02/29 12:21:35;;;;;;;13.52;5.93;;;14.90;82.70;;;;;;4999654;28;19917;-68
2024/02/29 12:24:02;;;;;;;14.15;5.95;;;15.00;86.60;;;;;;4993291;28;20038;-67
2024/02/29 12:26:28;;;;;;;18.38;6.80;;;15.80;83.90;;;;;;4991904;28;20034;-66
2024/02/29 12:28:54;;;;;;;11.88;5.82;;;15.50;84.10;;;;;;5007862;28;20033;-66
2024/02/29 12:31:20;;;;;;;13.15;5.63;;;16.10;85.10;;;;;;4991614;28;20126;-66
2024/02/29 12:33:47;;;;;;;11.73;5.40;;;15.40;85.30;;;;;;4992117;28;20106;-67
2024/02/29 12:36:21;;;;;;;14.85;5.88;;;15.20;86.20;;;;;;4989477;28;20065;-66
2024/02/29 12:38:48;;;;;;;19.88;6.18;;;18.20;80.20;;;;;;4990890;28;20117;-67
2024/02/29 12:41:15;;;;;;;18.17;6.45;;;18.20;76.00;;;;;;5005534;28;20525;-67
2024/02/29 12:43:49;;;;;;;12.60;5.43;;;19.80;73.90;;;;;;5007482;28;20178;-67
2024/02/29 12:46:16;;;;;;;10.77;5.10;;;17.00;77.40;;;;;;4990882;28;20034;-66
2024/02/29 12:48:43;;;;;;;13.55;6.00;;;17.40;76.60;;;;;;4992496;28;20057;-66